Time;durP1;ratioP1;P1;durP2;ratioP2;P2;SDS_P1;SDS_P2;PMS_P1;PMS_P2;Temp;Humidity;BMP_temperature;BMP_pressure;BME280_temperature;BME280_humidity;BME280_pressure;Samples;Min_cycle;Max_cycle;Signal;HPM_P1;HPM_P2
2022/01/24 00:01:15;;;;;;;;;;;;;;;-3.33;58.98;101459.44;4454541;32;20333;-86
2022/01/24 00:03:40;;;;;;;;;;;;;;;-3.35;58.97;101459.38;4441618;32;20328;-86
2022/01/24 00:06:09;;;;;;;;;;;;;;;-3.39;58.97;101467.66;4454612;32;20032;-86
2022/01/24 00:08:34;;;;;;;;;;;;;;;-3.42;58.96;101459.84;4442048;32;20020;-86
2022/01/24 00:11:06;;;;;;;;;;;;;;;-3.42;58.97;101462.41;4454104;32;24073;-86
2022/01/24 00:16:23;;;;;;;;;;;;;;;-3.36;58.97;101467.81;4468989;32;19992;-86
2022/01/24 00:26:50;;;;;;;;;;;;;;;-4.32;58.91;101501.69;4468950;32;20019;-87
2022/01/24 00:29:16;;;;;;;;;;;;;;;-4.49;58.91;101497.34;4453768;32;24242;-86
2022/01/24 00:31:41;;;;;;;;;;;;;;;-4.59;58.90;101502.69;4453961;32;20022;-87
2022/01/24 00:34:07;;;;;;;;;;;;;;;-4.60;58.90;101498.37;4454453;32;19990;-84
2022/01/24 00:36:32;;;;;;;;;;;;;;;-4.53;58.90;101504.69;4454552;32;19993;-84
2022/01/24 00:38:57;;;;;;;;;;;;;;;-4.43;58.91;101501.87;4454316;32;20328;-84
2022/01/24 00:41:23;;;;;;;;;;;;;;;-4.23;58.92;101503.00;4467232;32;20337;-85
2022/01/24 00:46:33;;;;;;;;;;;;;;;-4.25;58.92;101502.91;4455090;32;20345;-84
2022/01/24 00:57:00;;;;;;;;;;;;;;;-4.36;58.91;101504.84;4456523;32;20043;-85
2022/01/24 00:59:25;;;;;;;;;;;;;;;-4.26;58.93;101500.25;4454223;32;19973;-85
2022/01/24 01:01:50;;;;;;;;;;;;;;;-4.47;58.91;101508.47;4468394;32;19972;-85
2022/01/24 01:04:16;;;;;;;;;;;;;;;-4.42;58.92;101503.63;4468502;32;20000;-84
2022/01/24 01:06:44;;;;;;;;;;;;;;;-4.46;58.91;101499.19;4468526;32;20394;-85
2022/01/24 01:20:05;;;;;;;;;;;;;;;-4.44;58.90;101485.75;4456161;32;19988;-85
2022/01/24 01:22:30;;;;;;;;;;;;;;;-4.59;58.90;101495.06;4468164;32;20008;-85
2022/01/24 01:24:56;;;;;;;;;;;;;;;-4.59;58.90;101494.19;4453354;32;31374;-85
2022/01/24 01:27:27;;;;;;;;;;;;;;;-4.54;58.91;101492.78;4454225;32;19989;-85
2022/01/24 01:32:40;;;;;;;;;;;;;;;-4.70;58.89;101501.22;4453546;32;20008;-85
2022/01/24 01:56:33;;;;;;;;;;;;;;;-5.37;58.85;101497.28;4456719;32;19989;-85
2022/01/24 01:58:58;;;;;;;;;;;;;;;-5.42;58.86;101494.47;4455272;32;20356;-86
2022/01/24 02:01:24;;;;;;;;;;;;;;;-5.36;58.85;101499.03;4455601;32;20069;-85
2022/01/24 02:03:50;;;;;;;;;;;;;;;-5.43;58.86;101505.41;4454701;32;32818;-85
2022/01/24 02:06:15;;;;;;;;;;;;;;;-5.61;58.84;101501.75;4455643;32;19993;-84
2022/01/24 02:08:41;;;;;;;;;;;;;;;-5.39;58.85;101504.78;4455322;32;20289;-84
2022/01/24 02:11:09;;;;;;;;;;;;;;;-5.31;58.86;101497.63;4469679;32;20281;-84
2022/01/24 02:13:35;;;;;;;;;;;;;;;-5.33;58.86;101505.16;4443072;32;20495;-86
2022/01/24 02:21:08;;;;;;;;;;;;;;;-5.21;58.87;101510.06;4469668;32;20052;-86
2022/01/24 02:25:59;;;;;;;;;;;;;;;-5.60;58.84;101518.72;4454763;32;20715;-84
2022/01/24 02:28:28;;;;;;;;;;;;;;;-5.54;58.84;101524.16;4442346;32;20020;-85
2022/01/24 02:33:21;;;;;;;;;;;;;;;-5.39;58.85;101509.88;4455753;32;19985;-86
2022/01/24 02:35:46;;;;;;;;;;;;;;;-5.32;58.86;101511.09;4469699;32;20036;-85
2022/01/24 02:38:46;;;;;;;;;;;;;;;-5.62;58.84;101516.09;4469740;32;20266;-85
2022/01/24 02:49:09;;;;;;;;;;;;;;;-5.98;58.82;101516.38;4457509;32;20003;-84
2022/01/24 02:54:07;;;;;;;;;;;;;;;-5.83;58.83;101527.44;4469417;32;20431;-85
2022/01/24 02:56:32;;;;;;;;;;;;;;;-5.91;58.82;101523.59;4442160;32;19981;-84
2022/01/24 02:58:57;;;;;;;;;;;;;;;-5.94;58.83;101524.25;4468584;32;34871;-84
2022/01/24 03:01:22;;;;;;;;;;;;;;;-5.83;58.83;101524.03;4441580;32;25556;-84
2022/01/24 03:03:47;;;;;;;;;;;;;;;-5.72;58.83;101520.50;4468253;32;20015;-85
2022/01/24 03:06:13;;;;;;;;;;;;;;;-5.74;58.83;101524.59;4468504;32;26381;-85
2022/01/24 03:08:40;;;;;;;;;;;;;;;-5.83;58.82;101526.56;4454411;32;24880;-85
2022/01/24 03:11:05;;;;;;;;;;;;;;;-5.82;58.83;101520.72;4469338;32;19973;-85
2022/01/24 03:13:32;;;;;;;;;;;;;;;-5.73;58.82;101521.28;4469388;32;19984;-85
2022/01/24 03:15:59;;;;;;;;;;;;;;;-5.46;58.85;101524.59;4454907;32;19985;-85
2022/01/24 03:18:24;;;;;;;;;;;;;;;-5.66;58.83;101523.44;4454832;32;20000;-86
2022/01/24 03:20:49;;;;;;;;;;;;;;;-5.81;58.83;101525.00;4469366;32;20000;-85
2022/01/24 03:23:15;;;;;;;;;;;;;;;-5.80;58.83;101539.44;4442014;32;20318;-85
2022/01/24 03:25:41;;;;;;;;;;;;;;;-5.82;58.83;101530.88;4469447;32;19985;-85
2022/01/24 03:28:06;;;;;;;;;;;;;;;-5.74;58.83;101530.53;4469353;32;20759;-85
2022/01/24 03:30:32;;;;;;;;;;;;;;;-5.75;58.83;101538.94;4454899;32;20004;-84
2022/01/24 03:32:57;;;;;;;;;;;;;;;-5.91;58.82;101547.31;4469268;32;19984;-84
2022/01/24 03:35:22;;;;;;;;;;;;;;;-5.83;58.83;101550.28;4441412;32;31638;-84
2022/01/24 03:37:48;;;;;;;;;;;;;;;-6.18;58.81;101545.53;4469288;32;20022;-84
2022/01/24 03:40:13;;;;;;;;;;;;;;;-6.07;58.82;101551.31;4469204;32;20435;-85
2022/01/24 03:42:38;;;;;;;;;;;;;;;-6.15;58.81;101555.91;4468615;32;27231;-84
2022/01/24 03:45:06;;;;;;;;;;;;;;;-6.22;58.80;101558.78;4468993;32;20056;-84
2022/01/24 03:50:00;;;;;;;;;;;;;;;-6.10;58.81;101553.66;4469079;32;19995;-84
2022/01/24 03:52:26;;;;;;;;;;;;;;;-6.05;58.81;101548.09;4468978;32;19981;-84
2022/01/24 03:54:51;;;;;;;;;;;;;;;-5.97;58.82;101551.09;4440854;32;31114;-85
2022/01/24 03:57:17;;;;;;;;;;;;;;;-6.07;58.82;101552.19;4454629;32;20563;-85
2022/01/24 03:59:42;;;;;;;;;;;;;;;-6.15;58.80;101552.44;4441611;32;20007;-85
2022/01/24 04:02:07;;;;;;;;;;;;;;;-6.05;58.81;101544.66;4454030;32;29616;-85
2022/01/24 04:04:32;;;;;;;;;;;;;;;-6.06;58.82;101546.31;4454706;32;20044;-84
2022/01/24 04:06:58;;;;;;;;;;;;;;;-6.10;58.81;101551.13;4469035;32;20006;-85
2022/01/24 04:09:23;;;;;;;;;;;;;;;-6.26;58.80;101552.66;4469062;32;19992;-85
2022/01/24 04:11:53;;;;;;;;;;;;;;;-6.38;58.79;101556.97;4454172;32;22124;-85
2022/01/24 04:14:28;;;;;;;;;;;;;;;-6.53;58.78;101561.91;4468898;32;20358;-85
2022/01/24 04:22:02;;;;;;;;;;;;;;;-6.25;58.80;101562.00;4468942;32;19992;-84
2022/01/24 04:24:28;;;;;;;;;;;;;;;-6.10;58.81;101566.31;4454470;32;19999;-84
2022/01/24 04:26:53;;;;;;;;;;;;;;;-6.05;58.81;101567.47;4454450;32;19996;-84
2022/01/24 04:29:18;;;;;;;;;;;;;;;-6.08;58.82;101563.09;4453951;32;24710;-84
2022/01/24 04:31:44;;;;;;;;;;;;;;;-6.19;58.81;101569.13;4453656;32;30872;-85
2022/01/24 04:34:09;;;;;;;;;;;;;;;-6.17;58.80;101577.69;4454414;32;20120;-85
2022/01/24 04:36:34;;;;;;;;;;;;;;;-6.24;58.80;101576.44;4468782;32;20031;-85
2022/01/24 04:39:00;;;;;;;;;;;;;;;-6.09;58.81;101584.16;4468347;32;20020;-84
2022/01/24 04:41:36;;;;;;;;;;;;;;;-6.18;58.80;101591.16;4454262;32;19973;-84
2022/01/24 04:46:50;;;;;;;;;;;;;;;-5.97;58.82;101589.13;4455010;32;19997;-84
2022/01/24 04:54:43;;;;;;;;;;;;;;;-6.00;58.82;101599.06;4455717;32;20320;-85
2022/01/24 04:57:15;;;;;;;;;;;;;;;-6.42;58.79;101592.09;4453306;32;20004;-85
2022/01/24 04:59:40;;;;;;;;;;;;;;;-6.27;58.80;101598.19;4467373;32;20001;-85
2022/01/24 05:02:06;;;;;;;;;;;;;;;-6.20;58.81;101595.25;4453106;32;19999;-86
2022/01/24 05:04:31;;;;;;;;;;;;;;;-6.09;58.80;101595.97;4453176;32;20253;-86
2022/01/24 05:06:56;;;;;;;;;;;;;;;-5.98;58.82;101608.53;4453091;32;20375;-84
2022/01/24 05:09:22;;;;;;;;;;;;;;;-6.32;58.80;101608.03;4440074;32;19991;-84
2022/01/24 05:12:15;;;;;;;;;;;;;;;-6.43;58.79;101610.63;4453093;32;20014;-84
2022/01/24 05:21:30;;;;;;;;;;;;;;;-6.32;58.80;101614.75;4467408;32;20114;-85
2022/01/24 05:25:49;;;;;;;;;;;;;;;-6.25;58.80;101632.09;4467112;32;20007;-85
2022/01/24 05:28:14;;;;;;;;;;;;;;;-6.20;58.81;101621.47;4467527;32;30749;-85
2022/01/24 05:30:39;;;;;;;;;;;;;;;-6.04;58.81;101615.75;4455125;32;20023;-85
2022/01/24 05:33:04;;;;;;;;;;;;;;;-6.05;58.81;101620.72;4455051;32;20072;-84
2022/01/24 05:35:30;;;;;;;;;;;;;;;-6.01;58.82;101615.94;4468624;32;30143;-84
2022/01/24 05:37:55;;;;;;;;;;;;;;;-6.15;58.81;101619.25;4469140;32;20015;-83
2022/01/24 05:40:20;;;;;;;;;;;;;;;-6.03;58.81;101626.75;4454394;32;22884;-83
2022/01/24 05:42:45;;;;;;;;;;;;;;;-6.15;58.80;101625.94;4469210;32;19993;-84
2022/01/24 05:45:11;;;;;;;;;;;;;;;-6.06;58.82;101629.97;4454236;32;28196;-84
2022/01/24 05:47:36;;;;;;;;;;;;;;;-6.13;58.81;101629.50;4454574;32;20005;-84
2022/01/24 05:50:01;;;;;;;;;;;;;;;-6.00;58.82;101626.94;4454725;32;20097;-83
2022/01/24 05:52:26;;;;;;;;;;;;;;;-6.28;58.80;101631.91;4468937;32;19997;-83
2022/01/24 05:54:52;;;;;;;;;;;;;;;-6.21;58.81;101647.59;4428651;32;903781;-84
2022/01/24 05:57:17;;;;;;;;;;;;;;;-6.03;58.81;101647.91;4466997;32;20359;-84
2022/01/24 05:59:42;;;;;;;;;;;;;;;-6.12;58.81;101646.47;4469426;32;19985;-84
2022/01/24 06:02:07;;;;;;;;;;;;;;;-6.18;58.80;101646.91;4468990;32;24446;-83
2022/01/24 06:04:32;;;;;;;;;;;;;;;-6.02;58.81;101644.59;4441996;32;20012;-84
2022/01/24 06:06:58;;;;;;;;;;;;;;;-6.20;58.80;101649.34;4454759;32;22649;-84
2022/01/24 06:09:23;;;;;;;;;;;;;;;-6.05;58.81;101657.09;4454872;32;19988;-84
2022/01/24 06:11:48;;;;;;;;;;;;;;;-6.19;58.81;101645.16;4454731;32;23005;-84
2022/01/24 06:14:13;;;;;;;;;;;;;;;-6.24;58.79;101651.59;4455290;32;20029;-82
2022/01/24 06:16:40;;;;;;;;;;;;;;;-6.13;58.81;101652.31;4454954;32;19985;-84
2022/01/24 06:19:05;;;;;;;;;;;;;;;-6.16;58.80;101652.06;4469404;32;19977;-84
2022/01/24 06:21:30;;;;;;;;;;;;;;;-6.04;58.81;101656.31;4468332;32;30985;-83
2022/01/24 06:23:55;;;;;;;;;;;;;;;-6.19;58.80;101661.25;4467647;32;30599;-84
2022/01/24 06:26:21;;;;;;;;;;;;;;;-6.23;58.79;101663.47;4469513;32;20310;-83
2022/01/24 06:28:46;;;;;;;;;;;;;;;-6.03;58.81;101674.94;4468954;32;27893;-84
2022/01/24 06:31:11;;;;;;;;;;;;;;;-6.29;58.79;101675.75;4469519;32;19984;-84
2022/01/24 06:33:36;;;;;;;;;;;;;;;-6.45;58.79;101681.44;4454732;32;22836;-84
2022/01/24 06:36:02;;;;;;;;;;;;;;;-6.35;58.80;101686.38;4455146;32;20020;-84
2022/01/24 06:38:27;;;;;;;;;;;;;;;-6.42;58.79;101681.66;4455169;32;19969;-84
2022/01/24 06:40:52;;;;;;;;;;;;;;;-6.32;58.80;101685.69;4442163;32;20036;-84
2022/01/24 06:43:17;;;;;;;;;;;;;;;-6.35;58.80;101685.50;4468990;32;20012;-83
2022/01/24 06:45:42;;;;;;;;;;;;;;;-6.45;58.79;101688.16;4442118;32;20001;-83
2022/01/24 06:48:08;;;;;;;;;;;;;;;-6.35;58.80;101688.03;4469147;32;20352;-83
2022/01/24 06:50:33;;;;;;;;;;;;;;;-6.22;58.81;101688.91;4454928;32;20281;-83
2022/01/24 06:52:58;;;;;;;;;;;;;;;-6.29;58.79;101703.63;4468628;32;27924;-83
2022/01/24 06:55:26;;;;;;;;;;;;;;;-6.36;58.80;101707.41;4469144;32;20037;-84
2022/01/24 06:57:51;;;;;;;;;;;;;;;-6.34;58.79;101710.06;4441918;32;20060;-82
2022/01/24 07:00:16;;;;;;;;;;;;;;;-6.03;58.81;101708.75;4454922;32;20391;-84
2022/01/24 07:02:44;;;;;;;;;;;;;;;-6.08;58.81;101711.78;4469176;32;19993;-84
2022/01/24 07:05:09;;;;;;;;;;;;;;;-6.11;58.80;101720.06;4469189;32;19988;-83
2022/01/24 07:07:34;;;;;;;;;;;;;;;-6.06;58.82;101725.44;4454957;32;20013;-84
2022/01/24 07:10:00;;;;;;;;;;;;;;;-6.00;58.82;101724.16;4469519;32;20003;-83
2022/01/24 07:12:25;;;;;;;;;;;;;;;-5.82;58.83;101719.41;4442151;32;20022;-84
2022/01/24 07:14:51;;;;;;;;;;;;;;;-5.58;58.85;101718.44;4469460;32;19992;-84
2022/01/24 07:17:32;;;;;;;;;;;;;;;-5.63;58.84;101717.28;4469365;32;19981;-84
2022/01/24 07:19:57;;;;;;;;;;;;;;;-5.62;58.84;101725.75;4469586;32;19989;-83
2022/01/24 07:22:23;;;;;;;;;;;;;;;-5.41;58.85;101731.34;4469432;32;20360;-84
2022/01/24 07:24:48;;;;;;;;;;;;;;;-5.45;58.85;101721.75;4469052;32;26469;-84
2022/01/24 07:27:13;;;;;;;;;;;;;;;-5.39;58.85;101733.19;4468745;32;25971;-84
2022/01/24 07:29:39;;;;;;;;;;;;;;;-5.33;58.86;101733.56;4454480;32;32786;-84
2022/01/24 07:32:04;;;;;;;;;;;;;;;-5.19;58.87;101731.03;4469361;32;19977;-83
2022/01/24 07:34:29;;;;;;;;;;;;;;;-5.20;58.86;101741.97;4469370;32;20026;-84
2022/01/24 07:36:55;;;;;;;;;;;;;;;-5.13;58.87;101742.44;4469419;32;20326;-84
2022/01/24 07:39:21;;;;;;;;;;;;;;;-5.02;58.87;101743.97;4469476;32;19990;-83
2022/01/24 07:41:47;;;;;;;;;;;;;;;-4.85;58.89;101757.72;4454711;32;20457;-84
2022/01/24 07:44:12;;;;;;;;;;;;;;;-4.69;58.90;101745.19;4469532;32;20800;-83
2022/01/24 07:46:38;;;;;;;;;;;;;;;-4.51;58.90;101747.06;4469320;32;19993;-84
2022/01/24 07:49:03;;;;;;;;;;;;;;;-4.41;58.92;101752.81;4454887;32;19992;-84
2022/01/24 07:51:28;;;;;;;;;;;;;;;-4.20;58.92;101752.34;4441198;32;20236;-83
2022/01/24 07:53:54;;;;;;;;;;;;;;;-4.24;58.92;101758.91;4468532;32;28225;-85
2022/01/24 07:56:19;;;;;;;;;;;;;;;-4.16;58.93;101761.91;4468717;32;26661;-84
2022/01/24 07:58:44;;;;;;;;;;;;;;;-3.86;58.94;101766.25;4468948;32;20020;-84
2022/01/24 08:01:10;;;;;;;;;;;;;;;-3.68;58.96;101761.34;4469369;32;19996;-84
2022/01/24 08:03:35;;;;;;;;;;;;;;;-3.54;58.96;101763.03;4441925;32;20306;-84
2022/01/24 08:06:00;;;;;;;;;;;;;;;-3.31;58.98;101755.75;4468762;32;27031;-84
2022/01/24 08:08:26;;;;;;;;;;;;;;;-3.17;58.98;101765.06;4454957;32;19988;-83
2022/01/24 08:10:51;;;;;;;;;;;;;;;-2.95;59.00;101772.22;4469293;32;19972;-84
2022/01/24 08:13:16;;;;;;;;;;;;;;;-2.97;59.00;101766.16;4454223;32;25335;-84
2022/01/24 08:15:41;;;;;;;;;;;;;;;-2.75;59.01;101765.66;4468478;32;27523;-85
2022/01/24 08:18:07;;;;;;;;;;;;;;;-2.53;59.02;101763.47;4469032;32;19993;-85
2022/01/24 08:20:33;;;;;;;;;;;;;;;-2.58;59.02;101765.78;4454200;32;27180;-85
2022/01/24 08:22:58;;;;;;;;;;;;;;;-2.62;59.01;101768.94;4469034;32;20372;-85
2022/01/24 08:25:26;;;;;;;;;;;;;;;-2.54;59.02;101766.81;4468343;32;24802;-85
2022/01/24 08:27:51;;;;;;;;;;;;;;;-2.30;59.04;101760.44;4469108;32;19981;-84
2022/01/24 08:30:17;;;;;;;;;;;;;;;-2.07;59.05;101760.75;4468970;32;20027;-84
2022/01/24 08:32:42;;;;;;;;;;;;;;;-2.10;59.05;101766.56;4468237;32;20285;-84
2022/01/24 08:35:09;;;;;;;;;;;;;;;-1.88;59.06;101768.53;4469050;32;19992;-84
2022/01/24 08:37:34;;;;;;;;;;;;;;;-1.62;59.07;101770.72;4454488;32;20010;-84
2022/01/24 08:40:00;;;;;;;;;;;;;;;-1.42;59.08;101770.78;4454494;32;20030;-83
2022/01/24 08:42:55;;;;;;;;;;;;;;;-1.01;59.12;101765.97;4454397;32;20020;-85
2022/01/24 08:47:55;;;;;;;;;;;;;;;-0.74;59.12;101768.94;4456315;32;19994;-84
2022/01/24 08:50:25;;;;;;;;;;;;;;;-0.70;59.13;101769.97;4468521;32;19977;-83
2022/01/24 08:52:51;;;;;;;;;;;;;;;-0.47;59.14;101769.34;4454858;32;20022;-84
2022/01/24 08:55:16;;;;;;;;;;;;;;;-0.45;59.14;101762.59;4453672;32;27463;-84
2022/01/24 08:57:41;;;;;;;;;;;;;;;-0.04;59.17;101763.50;4440526;32;31583;-84
2022/01/24 09:00:07;;;;;;;;;;;;;;;-0.12;59.17;101767.44;4454199;32;20318;-84
2022/01/24 09:02:34;;;;;;;;;;;;;;;0.15;59.17;101768.63;4453021;32;19988;-82
2022/01/24 09:04:59;;;;;;;;;;;;;;;0.35;59.19;101761.78;4454093;32;20052;-84
2022/01/24 09:07:29;;;;;;;;;;;;;;;0.41;59.20;101768.81;4453332;32;28485;-83
2022/01/24 09:09:54;;;;;;;;;;;;;;;0.45;59.20;101758.75;4454568;32;19984;-83
2022/01/24 09:12:19;;;;;;;;;;;;;;;0.64;59.20;101768.09;4440371;32;20524;-82
2022/01/24 09:14:47;;;;;;;;;;;;;;;0.83;59.22;101757.75;4468151;32;20278;-83
2022/01/24 09:17:12;;;;;;;;;;;;;;;0.73;59.21;101759.91;4468108;32;20041;-83
2022/01/24 09:19:38;;;;;;;;;;;;;;;0.82;59.22;101755.13;4467627;32;21185;-84
2022/01/24 09:22:03;;;;;;;;;;;;;;;0.96;59.23;101764.25;4453571;32;20044;-82
2022/01/24 09:24:28;;;;;;;;;;;;;;;0.97;59.23;101768.56;4468104;32;20294;-82
2022/01/24 09:26:54;;;;;;;;;;;;;;;1.25;59.24;101759.34;4468014;32;20608;-83
2022/01/24 09:29:19;;;;;;;;;;;;;;;1.31;59.24;101765.59;4452865;32;25570;-84
2022/01/24 09:31:44;;;;;;;;;;;;;;;1.37;59.25;101759.81;4467518;32;20036;-82
2022/01/24 09:34:10;;;;;;;;;;;;;;;1.37;59.25;101762.37;4452529;32;31902;-82
2022/01/24 09:36:35;;;;;;;;;;;;;;;1.46;59.25;101763.59;4453544;32;20024;-84
2022/01/24 09:39:00;;;;;;;;;;;;;;;1.47;59.25;101772.19;4467986;32;20345;-84
2022/01/24 09:41:26;;;;;;;;;;;;;;;1.66;59.26;101764.34;4467744;32;19994;-82
2022/01/24 09:43:51;;;;;;;;;;;;;;;1.65;59.27;101761.69;4452853;32;34464;-83
2022/01/24 09:46:16;;;;;;;;;;;;;;;1.84;59.28;101753.84;4453616;32;19995;-81
2022/01/24 09:48:41;;;;;;;;;;;;;;;1.96;59.28;101744.00;4452541;32;25225;-83
2022/01/24 09:51:07;;;;;;;;;;;;;;;1.71;59.27;101746.53;4453318;32;20333;-82
2022/01/24 09:53:33;;;;;;;;;;;;;;;1.77;59.27;101752.75;4453244;32;20042;-82
2022/01/24 09:56:03;;;;;;;;;;;;;;;2.00;59.29;101739.84;4440476;32;20624;-82
2022/01/24 09:58:28;;;;;;;;;;;;;;;1.98;59.29;101737.22;4453364;32;20008;-83
2022/01/24 10:00:53;;;;;;;;;;;;;;;1.93;59.29;101736.19;4452630;32;25287;-85
2022/01/24 10:03:19;;;;;;;;;;;;;;;2.07;59.29;101740.09;4453354;32;20004;-83
2022/01/24 10:05:50;;;;;;;;;;;;;;;2.25;59.30;101741.56;4453296;32;20002;-83
2022/01/24 10:08:16;;;;;;;;;;;;;;;2.21;59.29;101743.16;4453280;32;19997;-85
2022/01/24 10:10:46;;;;;;;;;;;;;;;2.29;59.30;101734.00;4453149;32;19988;-85
2022/01/24 10:19:14;;;;;;;;;;;;;;;2.71;59.33;101728.50;4469571;32;20007;-85
2022/01/24 10:22:00;;;;;;;;;;;;;;;2.80;59.33;101726.19;4456364;32;19980;-85
2022/01/24 10:24:44;;;;;;;;;;;;;;;3.01;59.34;101731.13;4455757;32;19992;-84
2022/01/24 10:27:27;;;;;;;;;;;;;;;2.92;59.33;101720.56;4442528;32;19989;-85
2022/01/24 10:30:10;;;;;;;;;;;;;;;2.70;59.32;101726.75;4455414;32;20054;-85
2022/01/24 10:32:35;;;;;;;;;;;;;;;2.92;59.34;101718.88;4469562;32;19998;-85
2022/01/24 10:35:20;;;;;;;;;;;;;;;2.92;59.33;101725.72;4455215;32;20350;-84
2022/01/24 10:37:48;;;;;;;;;;;;;;;3.07;59.34;101727.03;4455050;32;19981;-85
2022/01/24 10:40:29;;;;;;;;;;;;;;;3.29;59.36;101715.69;4469666;32;19993;-85
2022/01/24 10:42:55;;;;;;;;;;;;;;;3.37;59.36;101729.66;4469622;32;19981;-85
2022/01/24 10:45:22;;;;;;;;;;;;;;;3.48;59.37;101721.34;4455360;32;19988;-85
2022/01/24 10:47:49;;;;;;;;;;;;;;;3.61;59.38;101720.88;4469642;32;20021;-85
2022/01/24 10:50:25;;;;;;;;;;;;;;;3.64;59.38;101715.81;4442422;32;19985;-85
2022/01/24 10:52:51;;;;;;;;;;;;;;;3.76;59.38;101717.84;4455340;32;20058;-85
2022/01/24 10:55:19;;;;;;;;;;;;;;;3.78;59.39;101714.47;4455077;32;20004;-84
2022/01/24 10:57:46;;;;;;;;;;;;;;;3.81;59.38;101708.56;4455222;32;19989;-85
2022/01/24 11:00:29;;;;;;;;;;;;;;;3.81;59.38;101706.84;4455324;32;19993;-85
2022/01/24 11:02:55;;;;;;;;;;;;;;;3.86;59.39;101702.69;4469585;32;20398;-85
2022/01/24 11:05:22;;;;;;;;;;;;;;;3.92;59.40;101712.28;4469594;32;20025;-84
2022/01/24 11:07:48;;;;;;;;;;;;;;;4.03;59.40;101710.00;4469631;32;19995;-85
2022/01/24 11:10:13;;;;;;;;;;;;;;;4.06;59.41;101712.66;4455407;32;20269;-85
2022/01/24 11:12:39;;;;;;;;;;;;;;;4.12;59.40;101710.22;4442432;32;19993;-85
2022/01/24 11:15:05;;;;;;;;;;;;;;;4.05;59.40;101708.34;4455377;32;19981;-85
2022/01/24 11:17:30;;;;;;;;;;;;;;;4.04;59.40;101704.87;4455218;32;19981;-85
2022/01/24 11:20:00;;;;;;;;;;;;;;;4.03;59.40;101704.84;4455015;32;19981;-85
2022/01/24 11:22:28;;;;;;;;;;;;;;;3.87;59.39;101708.72;4455650;32;19988;-85
2022/01/24 11:24:58;;;;;;;;;;;;;;;3.83;59.38;101709.47;4454850;32;20011;-85
2022/01/24 11:27:23;;;;;;;;;;;;;;;4.01;59.40;101710.81;4455654;32;19992;-85
2022/01/24 11:29:49;;;;;;;;;;;;;;;4.18;59.41;101712.94;4455044;32;20231;-85
2022/01/24 11:32:16;;;;;;;;;;;;;;;4.17;59.41;101714.66;4455196;32;20044;-85
2022/01/24 11:34:42;;;;;;;;;;;;;;;4.30;59.42;101705.53;4469481;32;19990;-85
2022/01/24 11:37:07;;;;;;;;;;;;;;;4.40;59.42;101704.03;4442335;32;19978;-85
2022/01/24 11:39:33;;;;;;;;;;;;;;;4.13;59.41;101701.66;4469594;32;20007;-85
2022/01/24 11:41:58;;;;;;;;;;;;;;;4.25;59.41;101700.25;4469529;32;19985;-85
2022/01/24 11:44:24;;;;;;;;;;;;;;;4.10;59.40;101699.88;4442088;32;20007;-85
2022/01/24 11:46:52;;;;;;;;;;;;;;;4.04;59.40;101696.28;4469461;32;19977;-85
2022/01/24 11:49:27;;;;;;;;;;;;;;;3.97;59.41;101690.94;4455473;32;20057;-85
2022/01/24 11:52:13;;;;;;;;;;;;;;;3.94;59.40;101696.03;4469186;32;20063;-85
2022/01/24 11:54:48;;;;;;;;;;;;;;;4.05;59.41;101688.59;4455244;32;19999;-86
2022/01/24 11:57:23;;;;;;;;;;;;;;;3.86;59.40;101681.22;4469182;32;20038;-85
2022/01/24 11:59:49;;;;;;;;;;;;;;;4.00;59.40;101683.28;4469271;32;20056;-86
2022/01/24 12:02:18;;;;;;;;;;;;;;;4.10;59.41;101680.97;4454819;32;19999;-85
2022/01/24 12:04:49;;;;;;;;;;;;;;;4.06;59.41;101684.31;4454614;32;20052;-85
2022/01/24 12:07:19;;;;;;;;;;;;;;;3.92;59.40;101679.66;4454703;32;19987;-85
2022/01/24 12:09:44;;;;;;;;;;;;;;;3.93;59.40;101675.38;4454698;32;20020;-85
2022/01/24 12:12:34;;;;;;;;;;;;;;;3.75;59.38;101675.75;4468909;32;19992;-85
2022/01/24 12:14:59;;;;;;;;;;;;;;;3.70;59.38;101672.19;4469173;32;19985;-85
2022/01/24 12:17:48;;;;;;;;;;;;;;;3.82;59.39;101666.50;4454671;32;20360;-85
2022/01/24 12:20:31;;;;;;;;;;;;;;;3.99;59.40;101668.66;4448137;32;19989;-85
2022/01/24 12:22:57;;;;;;;;;;;;;;;4.03;59.40;101672.22;4468871;32;19995;-85
2022/01/24 12:25:41;;;;;;;;;;;;;;;3.98;59.40;101664.34;4468959;32;20029;-85
2022/01/24 12:28:16;;;;;;;;;;;;;;;3.83;59.38;101670.84;4468852;32;19965;-85
2022/01/24 12:30:58;;;;;;;;;;;;;;;3.88;59.39;101672.69;4454648;32;20011;-86
2022/01/24 12:33:29;;;;;;;;;;;;;;;4.03;59.40;101671.34;4454632;32;20011;-85
2022/01/24 12:35:54;;;;;;;;;;;;;;;3.79;59.39;101669.88;4468856;32;19987;-85
2022/01/24 12:38:20;;;;;;;;;;;;;;;3.67;59.38;101662.69;4440746;32;28417;-85
2022/01/24 12:40:45;;;;;;;;;;;;;;;3.48;59.38;101667.28;4468797;32;19995;-85
2022/01/24 12:43:18;;;;;;;;;;;;;;;3.52;59.37;101658.81;4454625;32;20008;-85
2022/01/24 12:48:28;;;;;;;;;;;;;;;3.55;59.38;101667.53;4468768;32;19986;-85
2022/01/24 12:50:54;;;;;;;;;;;;;;;3.38;59.36;101661.91;4454256;32;19977;-85
2022/01/24 12:53:20;;;;;;;;;;;;;;;3.52;59.37;101669.12;4454383;32;20023;-85
2022/01/24 12:55:55;;;;;;;;;;;;;;;3.27;59.36;101668.44;4454456;32;19977;-86
2022/01/24 12:58:28;;;;;;;;;;;;;;;3.17;59.36;101666.44;4468551;32;19995;-85
2022/01/24 13:00:54;;;;;;;;;;;;;;;3.31;59.37;101660.00;4454174;32;19989;-85
2022/01/24 13:03:19;;;;;;;;;;;;;;;3.24;59.36;101658.06;4453220;32;26912;-86
2022/01/24 13:05:44;;;;;;;;;;;;;;;3.41;59.37;101657.66;4453484;32;19995;-84
2022/01/24 13:08:13;;;;;;;;;;;;;;;3.52;59.38;101663.97;4453735;32;20302;-86
2022/01/24 13:10:38;;;;;;;;;;;;;;;3.62;59.38;101659.12;4453733;32;20000;-85
2022/01/24 13:13:10;;;;;;;;;;;;;;;3.44;59.37;101661.19;4467842;32;26371;-85
2022/01/24 13:21:10;;;;;;;;;;;;;;;3.53;59.38;101655.41;4456298;32;20780;-85
2022/01/24 13:23:39;;;;;;;;;;;;;;;3.66;59.38;101649.78;4441525;32;19992;-85
2022/01/24 13:26:05;;;;;;;;;;;;;;;3.65;59.38;101658.34;4454239;32;19984;-85
2022/01/24 13:28:30;;;;;;;;;;;;;;;3.68;59.38;101653.25;4453800;32;20261;-86
2022/01/24 13:31:01;;;;;;;;;;;;;;;3.68;59.38;101660.97;4467933;32;20039;-85
2022/01/24 13:33:26;;;;;;;;;;;;;;;3.87;59.40;101659.75;4454412;32;20007;-85
2022/01/24 13:35:53;;;;;;;;;;;;;;;3.55;59.38;101658.91;4468015;32;20530;-85
2022/01/24 13:38:19;;;;;;;;;;;;;;;3.55;59.38;101656.31;4468072;32;19991;-85
2022/01/24 13:40:55;;;;;;;;;;;;;;;3.59;59.38;101660.75;4453694;32;20003;-85
2022/01/24 13:43:35;;;;;;;;;;;;;;;3.63;59.38;101658.28;4467930;32;20057;-85
2022/01/24 13:46:01;;;;;;;;;;;;;;;3.30;59.35;101670.22;4467955;32;19976;-85
2022/01/24 13:48:26;;;;;;;;;;;;;;;3.48;59.37;101664.72;4453639;32;20121;-85
2022/01/24 13:50:52;;;;;;;;;;;;;;;3.48;59.38;101659.56;4469975;32;19976;-85
2022/01/24 13:53:31;;;;;;;;;;;;;;;3.55;59.38;101656.31;4442517;32;19989;-85
2022/01/24 13:55:56;;;;;;;;;;;;;;;3.58;59.38;101652.16;4455701;32;19977;-85
2022/01/24 13:58:24;;;;;;;;;;;;;;;3.68;59.38;101653.25;4469881;32;19988;-84
2022/01/24 14:00:59;;;;;;;;;;;;;;;3.73;59.39;101659.41;4469982;32;20031;-85
2022/01/24 14:03:24;;;;;;;;;;;;;;;3.47;59.38;101652.69;4455796;32;20057;-85
2022/01/24 14:06:09;;;;;;;;;;;;;;;3.56;59.38;101653.81;4455484;32;19977;-85
2022/01/24 14:08:35;;;;;;;;;;;;;;;3.55;59.38;101657.22;4469986;32;19999;-85
2022/01/24 14:11:09;;;;;;;;;;;;;;;3.51;59.37;101649.34;4454767;32;35369;-85
2022/01/24 14:13:34;;;;;;;;;;;;;;;3.44;59.37;101658.62;4455936;32;20007;-85
2022/01/24 14:16:07;;;;;;;;;;;;;;;3.35;59.37;101650.66;4455775;32;20630;-85
2022/01/24 14:18:33;;;;;;;;;;;;;;;3.46;59.38;101653.50;4469974;32;19988;-85
2022/01/24 14:21:08;;;;;;;;;;;;;;;3.44;59.37;101660.31;4455852;32;19989;-85
2022/01/24 14:23:38;;;;;;;;;;;;;;;3.52;59.37;101654.53;4455686;32;20056;-85
2022/01/24 14:26:19;;;;;;;;;;;;;;;3.54;59.38;101652.88;4443236;32;19977;-85
2022/01/24 14:28:45;;;;;;;;;;;;;;;3.49;59.37;101654.47;4455616;32;20008;-85
2022/01/24 14:31:14;;;;;;;;;;;;;;;3.32;59.37;101651.44;4469680;32;19993;-85
2022/01/24 14:33:40;;;;;;;;;;;;;;;3.46;59.38;101643.22;4469683;32;20316;-85
2022/01/24 14:36:11;;;;;;;;;;;;;;;3.36;59.36;101645.56;4455349;32;20015;-85
2022/01/24 14:38:39;;;;;;;;;;;;;;;3.28;59.36;101651.28;4455935;32;19973;-85
2022/01/24 14:41:07;;;;;;;;;;;;;;;3.30;59.36;101654.78;4469928;32;19998;-85